createdAt,value
2023-08-26T00:02:12.784Z,6.57
2023-08-26T00:04:39.421Z,5.63
2023-08-26T00:07:07.714Z,9.23
2023-08-26T00:09:34.592Z,6.70
2023-08-26T00:12:01.176Z,8.18
2023-08-26T00:14:27.982Z,7.95
2023-08-26T00:16:54.609Z,11.93
2023-08-26T00:19:21.854Z,6.03
2023-08-26T00:21:51.953Z,5.43
2023-08-26T00:24:18.802Z,7.00
2023-08-26T00:26:45.575Z,5.35
2023-08-26T00:29:12.399Z,7.00
2023-08-26T00:31:39.528Z,5.35
2023-08-26T00:34:06.345Z,9.23
2023-08-26T00:36:32.893Z,9.95
2023-08-26T00:38:59.626Z,7.70
2023-08-26T00:41:26.166Z,8.73
2023-08-26T00:43:52.855Z,9.43
2023-08-26T00:46:19.581Z,6.93
2023-08-26T00:48:47.346Z,7.70
2023-08-26T00:51:13.870Z,6.65
2023-08-26T00:53:40.787Z,6.97
2023-08-26T00:56:07.374Z,6.53
2023-08-26T00:58:35.294Z,6.15
2023-08-26T01:01:02.469Z,6.28
2023-08-26T01:03:29.178Z,8.25
2023-08-26T01:05:56.845Z,9.15
2023-08-26T01:08:23.494Z,5.95
2023-08-26T01:10:50.146Z,6.47
2023-08-26T01:13:19.282Z,7.97
2023-08-26T01:15:48.317Z,10.10
2023-08-26T01:18:16.941Z,9.75
2023-08-26T01:20:43.862Z,8.05
2023-08-26T01:23:33.403Z,6.93
2023-08-26T01:26:00.689Z,6.75
2023-08-26T01:28:27.175Z,9.70
2023-08-26T01:30:56.226Z,4.55
2023-08-26T01:33:25.901Z,2.85
2023-08-26T01:35:57.368Z,6.53
2023-08-26T01:38:24.629Z,8.63
2023-08-26T01:40:57.268Z,7.18
2023-08-26T01:43:24.662Z,7.13
2023-08-26T01:45:54.419Z,6.97
2023-08-26T01:48:21.310Z,4.82
2023-08-26T01:50:47.909Z,8.20
2023-08-26T01:53:14.786Z,4.40
2023-08-26T01:55:41.471Z,8.18
2023-08-26T01:58:08.130Z,4.47
2023-08-26T02:00:34.805Z,8.23
2023-08-26T02:03:01.484Z,7.10
2023-08-26T02:05:28.322Z,8.57
2023-08-26T02:07:55.209Z,7.03
2023-08-26T02:10:23.534Z,8.07
2023-08-26T02:12:51.814Z,5.90
2023-08-26T02:15:18.403Z,5.00
2023-08-26T02:17:45.121Z,7.60
2023-08-26T02:20:11.773Z,8.00
2023-08-26T02:22:38.449Z,7.63
2023-08-26T02:25:05.336Z,9.77
2023-08-26T02:27:33.613Z,9.25
2023-08-26T02:30:00.285Z,5.53
2023-08-26T02:32:27.107Z,6.70
2023-08-26T02:34:53.617Z,6.38
2023-08-26T02:37:20.228Z,7.32
2023-08-26T02:39:47.046Z,7.60
2023-08-26T02:42:13.606Z,7.63
2023-08-26T02:44:40.142Z,7.80
2023-08-26T02:47:06.902Z,5.07
2023-08-26T02:49:33.390Z,6.82
2023-08-26T02:52:00.756Z,7.90
2023-08-26T02:54:27.362Z,4.85
2023-08-26T02:56:53.962Z,7.60
2023-08-26T02:59:21.590Z,5.53
2023-08-26T03:01:58.339Z,5.72
2023-08-26T03:04:24.898Z,6.07
2023-08-26T03:06:51.418Z,6.28
2023-08-26T03:09:18.394Z,6.45
2023-08-26T03:11:45.000Z,5.43
2023-08-26T03:14:11.630Z,4.82
2023-08-26T03:16:38.175Z,8.48
2023-08-26T03:19:04.780Z,6.43
2023-08-26T03:21:32.982Z,5.90
2023-08-26T03:23:59.690Z,5.00
2023-08-26T03:26:26.189Z,7.00
2023-08-26T03:28:53.363Z,8.05
2023-08-26T03:31:19.935Z,5.72
2023-08-26T03:33:48.652Z,5.78
2023-08-26T03:36:15.276Z,8.77
2023-08-26T03:38:42.549Z,5.85
2023-08-26T03:41:09.241Z,7.28
2023-08-26T03:43:35.940Z,4.85
2023-08-26T03:46:04.653Z,4.35
2023-08-26T03:48:31.585Z,2.92
2023-08-26T03:50:58.406Z,5.15
2023-08-26T03:53:25.602Z,8.07
2023-08-26T03:55:52.158Z,5.68
2023-08-26T03:58:19.316Z,5.40
2023-08-26T04:00:45.895Z,5.95
2023-08-26T04:03:13.181Z,9.18
2023-08-26T04:05:41.130Z,7.55
2023-08-26T04:08:08.163Z,5.25
2023-08-26T04:10:34.875Z,6.45
2023-08-26T04:13:02.408Z,4.55
2023-08-26T04:15:29.008Z,5.30
2023-08-26T04:17:55.799Z,7.97
2023-08-26T04:20:22.712Z,5.70
2023-08-26T04:22:49.335Z,5.28
2023-08-26T04:25:15.864Z,6.40
2023-08-26T04:27:42.521Z,8.68
2023-08-26T04:30:13.044Z,6.30
2023-08-26T04:32:39.758Z,6.25
2023-08-26T04:35:06.550Z,5.85
2023-08-26T04:37:33.260Z,5.03
2023-08-26T04:39:59.746Z,6.38
2023-08-26T04:42:26.309Z,6.78
2023-08-26T04:44:52.821Z,7.30
2023-08-26T04:47:23.483Z,5.18
2023-08-26T04:49:50.127Z,5.40
2023-08-26T04:52:16.668Z,4.55
2023-08-26T04:54:43.307Z,9.75
2023-08-26T04:57:09.798Z,4.97
2023-08-26T04:59:37.531Z,7.63
2023-08-26T05:02:05.215Z,5.72
2023-08-26T05:04:31.840Z,9.82
2023-08-26T05:06:58.350Z,8.82
2023-08-26T05:09:25.195Z,12.63
2023-08-26T05:11:51.965Z,8.57
2023-08-26T05:14:18.966Z,6.80
2023-08-26T05:16:45.689Z,7.00
2023-08-26T05:19:12.280Z,4.82
2023-08-26T05:21:38.785Z,12.88
2023-08-26T05:24:05.545Z,7.85
2023-08-26T05:26:32.388Z,6.57
2023-08-26T05:28:58.975Z,6.53
2023-08-26T05:31:26.138Z,4.85
2023-08-26T05:33:52.663Z,5.97
2023-08-26T05:36:19.454Z,7.55
2023-08-26T05:38:46.085Z,5.28
2023-08-26T05:41:12.779Z,4.97
2023-08-26T05:43:39.580Z,6.40
2023-08-26T05:46:06.197Z,7.57
2023-08-26T05:48:33.260Z,4.63
2023-08-26T05:51:00.271Z,3.08
2023-08-26T05:53:29.882Z,3.95
2023-08-26T05:55:56.897Z,4.80
2023-08-26T05:58:23.705Z,3.92
2023-08-26T06:00:50.403Z,6.20
2023-08-26T06:03:16.961Z,5.00
2023-08-26T06:05:43.485Z,3.83
2023-08-26T06:08:10.389Z,3.78
2023-08-26T06:10:37.273Z,6.43
2023-08-26T06:13:06.007Z,4.68
2023-08-26T06:15:32.622Z,3.97
2023-08-26T06:18:00.865Z,4.57
2023-08-26T06:20:28.540Z,6.40
2023-08-26T06:22:55.679Z,5.13
2023-08-26T06:25:22.397Z,4.18
2023-08-26T06:27:51.459Z,8.80
2023-08-26T06:30:18.036Z,8.48
2023-08-26T06:32:44.737Z,6.18
2023-08-26T06:35:12.971Z,7.88
2023-08-26T06:37:39.857Z,7.25
2023-08-26T06:40:06.625Z,6.53
2023-08-26T06:42:34.023Z,8.15
2023-08-26T06:45:03.751Z,5.53
2023-08-26T06:47:30.355Z,6.13
2023-08-26T06:49:57.094Z,5.22
2023-08-26T06:52:24.728Z,5.63
2023-08-26T06:54:51.270Z,7.53
2023-08-26T06:57:18.847Z,5.70
2023-08-26T06:59:46.585Z,8.25
2023-08-26T07:02:13.402Z,4.18
2023-08-26T07:04:39.867Z,6.35
2023-08-26T07:07:06.733Z,4.65
2023-08-26T07:09:33.238Z,6.82
2023-08-26T07:12:02.606Z,5.40
2023-08-26T07:14:29.824Z,4.53
2023-08-26T07:16:56.310Z,5.03
2023-08-26T07:19:22.952Z,4.47
2023-08-26T07:21:50.087Z,3.88
2023-08-26T07:24:16.774Z,3.65
2023-08-26T07:26:43.427Z,3.50
2023-08-26T07:29:10.168Z,4.35
2023-08-26T07:31:36.688Z,4.32
2023-08-26T07:34:04.125Z,5.03
2023-08-26T07:36:30.674Z,4.40
2023-08-26T07:38:57.293Z,4.25
2023-08-26T07:41:23.831Z,5.47
2023-08-26T07:43:50.545Z,5.88
2023-08-26T07:48:50.169Z,3.95
2023-08-26T07:51:17.055Z,3.78
2023-08-26T07:53:43.705Z,4.90
2023-08-26T07:56:10.307Z,5.50
2023-08-26T07:58:36.869Z,6.65
2023-08-26T08:01:03.424Z,3.05
2023-08-26T08:03:30.129Z,5.75
2023-08-26T08:05:56.696Z,3.65
2023-08-26T08:08:23.500Z,3.30
2023-08-26T08:10:51.245Z,2.45
2023-08-26T08:13:18.104Z,3.72
2023-08-26T08:15:44.813Z,5.03
2023-08-26T08:18:11.444Z,3.20
2023-08-26T08:20:38.015Z,3.05
2023-08-26T08:23:05.034Z,4.70
2023-08-26T08:25:31.627Z,2.83
2023-08-26T08:27:58.155Z,4.70
2023-08-26T08:30:24.697Z,4.47
2023-08-26T08:32:51.330Z,5.22
2023-08-26T08:35:17.926Z,3.10
2023-08-26T08:37:44.572Z,4.55
2023-08-26T08:40:11.325Z,2.55
2023-08-26T08:42:40.857Z,3.70
2023-08-26T08:45:08.049Z,4.30
2023-08-26T08:47:35.122Z,3.30
2023-08-26T08:50:02.881Z,2.28
2023-08-26T08:52:29.793Z,2.97
2023-08-26T08:54:56.333Z,2.33
2023-08-26T08:57:24.668Z,3.42
2023-08-26T08:59:52.538Z,5.32
2023-08-26T09:02:20.631Z,2.80
2023-08-26T09:04:47.584Z,3.58
2023-08-26T09:07:15.244Z,5.55
2023-08-26T09:09:56.109Z,3.78
2023-08-26T09:12:26.600Z,2.50
2023-08-26T09:14:53.440Z,1.30
2023-08-26T09:17:20.492Z,2.38
2023-08-26T09:19:54.788Z,3.20
2023-08-26T09:22:24.479Z,2.60
2023-08-26T09:24:54.334Z,3.50
2023-08-26T09:27:21.062Z,3.53
2023-08-26T09:29:47.727Z,5.10
2023-08-26T09:32:14.308Z,2.03
2023-08-26T09:34:40.889Z,2.45
2023-08-26T09:37:10.581Z,3.38
2023-08-26T09:39:47.629Z,2.15
2023-08-26T09:42:14.389Z,3.38
2023-08-26T09:44:41.357Z,2.25
2023-08-26T09:47:09.762Z,2.78
2023-08-26T09:49:36.558Z,2.00
2023-08-26T09:52:03.339Z,3.58
2023-08-26T09:54:31.417Z,1.13
2023-08-26T09:56:58.099Z,4.53
2023-08-26T09:59:24.673Z,2.08
2023-08-26T10:01:51.421Z,1.40
2023-08-26T10:04:22.954Z,1.77
2023-08-26T10:06:54.816Z,2.20
2023-08-26T10:09:38.393Z,1.77
2023-08-26T10:12:06.729Z,2.00
2023-08-26T10:14:34.180Z,4.20
2023-08-26T10:17:01.838Z,1.52
2023-08-26T10:19:29.792Z,2.20
2023-08-26T10:21:56.926Z,2.80
2023-08-26T10:24:23.666Z,2.10
2023-08-26T10:26:50.422Z,1.65
2023-08-26T10:29:18.698Z,2.92
2023-08-26T10:31:47.453Z,1.58
2023-08-26T10:34:15.648Z,2.25
2023-08-26T10:36:43.225Z,1.60
2023-08-26T10:39:15.628Z,6.72
2023-08-26T10:42:02.164Z,3.47
2023-08-26T10:44:31.039Z,2.50
2023-08-26T10:46:57.844Z,1.90
2023-08-26T10:49:28.867Z,1.35
2023-08-26T10:52:16.016Z,2.38
2023-08-26T10:54:48.700Z,1.80
2023-08-26T10:57:15.370Z,3.28
2023-08-26T10:59:42.584Z,1.83
2023-08-26T11:02:09.641Z,1.55
2023-08-26T11:04:43.906Z,1.25
2023-08-26T11:07:18.533Z,3.33
2023-08-26T11:09:47.797Z,1.63
2023-08-26T11:12:28.143Z,2.67
2023-08-26T11:15:04.409Z,1.58
2023-08-26T11:17:34.237Z,3.08
2023-08-26T11:20:09.658Z,2.15
2023-08-26T11:22:36.492Z,3.92
2023-08-26T11:25:04.279Z,1.63
2023-08-26T11:27:30.767Z,2.58
2023-08-26T11:29:57.304Z,2.15
2023-08-26T11:32:23.878Z,2.15
2023-08-26T11:34:53.706Z,2.45
2023-08-26T11:37:22.902Z,4.78
2023-08-26T11:39:49.756Z,1.88
2023-08-26T11:42:16.662Z,3.15
2023-08-26T11:44:47.500Z,2.35
2023-08-26T11:47:14.628Z,2.15
2023-08-26T11:49:41.673Z,2.00
2023-08-26T11:52:08.279Z,2.72
2023-08-26T11:54:34.807Z,1.98
2023-08-26T11:57:01.655Z,3.47
2023-08-26T11:59:37.526Z,4.28
2023-08-26T12:02:16.030Z,2.42
2023-08-26T12:04:42.562Z,3.03
2023-08-26T12:07:10.720Z,2.05
2023-08-26T12:09:37.415Z,1.73
2023-08-26T12:12:04.892Z,1.88
2023-08-26T12:14:32.764Z,2.75
2023-08-26T12:17:05.543Z,5.40
2023-08-26T12:19:35.864Z,3.55
2023-08-26T12:22:02.970Z,2.25
2023-08-26T12:24:29.459Z,1.48
2023-08-26T12:26:56.099Z,2.85
2023-08-26T12:29:22.753Z,2.38
2023-08-26T12:31:49.776Z,5.50
2023-08-26T12:34:16.493Z,1.98
2023-08-26T12:36:44.933Z,2.25
2023-08-26T12:39:11.409Z,2.45
2023-08-26T12:41:37.958Z,2.17
2023-08-26T12:44:04.533Z,3.50
2023-08-26T12:46:31.159Z,2.90
2023-08-26T12:48:57.841Z,3.38
2023-08-26T12:51:25.043Z,2.33
2023-08-26T12:53:51.814Z,2.72
2023-08-26T12:56:18.457Z,4.43
2023-08-26T12:58:46.723Z,3.05
2023-08-26T13:01:15.532Z,2.58
2023-08-26T13:03:42.223Z,4.93
2023-08-26T13:06:09.370Z,3.25
2023-08-26T13:08:37.056Z,4.18
2023-08-26T13:11:03.793Z,2.97
2023-08-26T13:13:30.329Z,2.83
2023-08-26T13:15:56.961Z,2.95
2023-08-26T13:18:23.627Z,2.28
2023-08-26T13:20:50.285Z,4.15
2023-08-26T13:23:30.225Z,4.97
2023-08-26T13:26:00.320Z,6.45
2023-08-26T13:28:27.056Z,3.38
2023-08-26T13:30:55.282Z,4.30
2023-08-26T13:33:22.123Z,5.97
2023-08-26T13:35:48.777Z,15.60
2023-08-26T13:38:15.492Z,18.45
2023-08-26T13:40:42.164Z,14.15
2023-08-26T13:43:08.689Z,9.32
2023-08-26T13:45:35.352Z,11.57
2023-08-26T13:48:02.090Z,8.57
2023-08-26T13:50:30.242Z,8.93
2023-08-26T13:52:56.830Z,3.85
2023-08-26T13:55:23.352Z,5.15
2023-08-26T13:57:49.929Z,3.20
2023-08-26T14:00:16.522Z,3.45
2023-08-26T14:02:43.588Z,3.50
2023-08-26T14:05:12.444Z,5.60
2023-08-26T14:07:39.994Z,3.17
2023-08-26T14:10:06.887Z,3.85
2023-08-26T14:12:35.482Z,5.00
2023-08-26T14:15:02.049Z,3.30
2023-08-26T14:17:28.626Z,1.73
2023-08-26T14:19:55.213Z,1.98
2023-08-26T14:22:21.794Z,4.43
2023-08-26T14:24:49.866Z,3.92
2023-08-26T14:27:17.327Z,2.10
2023-08-26T14:29:44.150Z,2.20
2023-08-26T14:32:10.754Z,3.35
2023-08-26T14:34:37.285Z,3.72
2023-08-26T14:37:03.934Z,4.05
2023-08-26T14:39:30.492Z,3.63
2023-08-26T14:41:57.177Z,2.85
2023-08-26T14:44:23.767Z,4.38
2023-08-26T14:46:50.465Z,3.25
2023-08-26T14:49:17.448Z,2.95
2023-08-26T14:51:44.070Z,4.60
2023-08-26T14:54:10.653Z,4.43
2023-08-26T14:56:37.243Z,4.88
2023-08-26T14:59:04.524Z,5.55
2023-08-26T15:01:31.131Z,3.25
2023-08-26T15:03:57.858Z,4.28
2023-08-26T15:06:24.636Z,5.55
2023-08-26T15:08:51.866Z,4.55
2023-08-26T15:11:18.945Z,5.07
2023-08-26T15:13:45.519Z,5.13
2023-08-26T15:16:14.283Z,7.55
2023-08-26T15:18:40.825Z,6.50
2023-08-26T15:21:08.523Z,4.72
2023-08-26T15:23:35.101Z,5.95
2023-08-26T15:26:02.993Z,5.22
2023-08-26T15:28:30.939Z,4.72
2023-08-26T15:30:57.501Z,4.25
2023-08-26T15:33:24.236Z,5.63
2023-08-26T15:35:51.881Z,5.50
2023-08-26T15:38:18.611Z,3.88
2023-08-26T15:40:54.806Z,9.55
2023-08-26T15:43:21.406Z,8.85
2023-08-26T15:45:48.102Z,5.43
2023-08-26T15:48:14.862Z,5.47
2023-08-26T15:50:41.471Z,4.90
2023-08-26T15:53:08.119Z,3.85
2023-08-26T15:55:39.053Z,5.13
2023-08-26T15:58:07.230Z,4.28
2023-08-26T16:00:34.002Z,4.35
2023-08-26T16:03:01.217Z,2.70
2023-08-26T16:05:28.316Z,4.50
2023-08-26T16:07:55.115Z,4.40
2023-08-26T16:10:21.717Z,4.53
2023-08-26T16:12:48.484Z,4.80
2023-08-26T16:15:15.264Z,4.45
2023-08-26T16:17:42.003Z,4.07
2023-08-26T16:20:09.157Z,7.30
2023-08-26T16:22:35.779Z,4.68
2023-08-26T16:25:02.312Z,3.80
2023-08-26T16:27:29.049Z,4.10
2023-08-26T16:29:55.659Z,6.75
2023-08-26T16:32:22.706Z,5.38
2023-08-26T16:34:49.355Z,4.63
2023-08-26T16:37:16.009Z,4.78
2023-08-26T16:39:42.707Z,6.10
2023-08-26T16:42:09.374Z,6.35
2023-08-26T16:44:36.091Z,4.60
2023-08-26T16:47:03.209Z,7.65
2023-08-26T16:49:30.015Z,6.57
2023-08-26T16:51:56.580Z,4.47
2023-08-26T16:54:23.230Z,6.80
2023-08-26T16:56:50.004Z,7.30
2023-08-26T16:59:16.483Z,6.07
2023-08-26T17:01:43.087Z,3.00
2023-08-26T17:04:09.722Z,2.80
2023-08-26T17:06:36.393Z,2.60
2023-08-26T17:09:03.354Z,3.92
2023-08-26T17:11:30.838Z,3.90
2023-08-26T17:13:57.313Z,4.32
2023-08-26T17:16:23.996Z,3.63
2023-08-26T17:18:50.586Z,2.97
2023-08-26T17:21:17.197Z,3.15
2023-08-26T17:23:43.684Z,4.07
2023-08-26T17:26:10.248Z,5.00
2023-08-26T17:28:36.804Z,3.13
2023-08-26T17:31:04.482Z,4.32
2023-08-26T17:33:31.228Z,2.17
2023-08-26T17:35:57.786Z,2.22
2023-08-26T17:38:24.323Z,2.90
2023-08-26T17:40:52.460Z,2.90
2023-08-26T17:43:18.998Z,7.95
2023-08-26T17:45:45.889Z,5.50
2023-08-26T17:48:13.170Z,3.85
2023-08-26T17:50:46.776Z,2.58
2023-08-26T17:53:13.739Z,2.00
2023-08-26T17:55:40.272Z,3.00
2023-08-26T17:58:07.130Z,3.10
2023-08-26T18:00:36.004Z,2.58
2023-08-26T18:03:02.799Z,5.93
2023-08-26T18:05:29.435Z,4.80
2023-08-26T18:07:56.011Z,4.00
2023-08-26T18:10:23.527Z,3.13
2023-08-26T18:12:50.123Z,4.72
2023-08-26T18:15:16.677Z,4.85
2023-08-26T18:17:43.290Z,4.40
2023-08-26T18:20:10.123Z,4.18
2023-08-26T18:22:36.781Z,6.07
2023-08-26T18:25:05.757Z,5.22
2023-08-26T18:27:32.374Z,5.60
2023-08-26T18:29:59.119Z,5.57
2023-08-26T18:32:25.728Z,6.82
2023-08-26T18:34:52.291Z,5.97
2023-08-26T18:37:18.858Z,6.00
2023-08-26T18:39:45.501Z,6.18
2023-08-26T18:42:12.122Z,5.80
2023-08-26T18:44:39.814Z,6.70
2023-08-26T18:47:06.401Z,4.47
2023-08-26T18:49:32.982Z,5.97
2023-08-26T18:51:59.614Z,3.75
2023-08-26T18:54:26.222Z,6.55
2023-08-26T18:56:53.073Z,4.75
2023-08-26T18:59:19.767Z,3.75
2023-08-26T19:01:46.357Z,3.55
2023-08-26T19:04:13.181Z,3.15
2023-08-26T19:06:39.836Z,4.15
2023-08-26T19:09:07.053Z,3.33
2023-08-26T19:11:33.687Z,6.35
2023-08-26T19:14:00.279Z,4.80
2023-08-26T19:16:26.941Z,4.10
2023-08-26T19:18:53.499Z,5.15
2023-08-26T19:21:20.131Z,5.95
2023-08-26T19:23:46.638Z,3.03
2023-08-26T19:26:19.773Z,3.55
2023-08-26T19:28:47.945Z,3.30
2023-08-26T19:31:16.886Z,3.60
2023-08-26T19:33:43.877Z,2.88
2023-08-26T19:36:10.872Z,3.30
2023-08-26T19:38:37.623Z,2.13
2023-08-26T19:41:04.332Z,3.17
2023-08-26T19:43:31.418Z,2.65
2023-08-26T19:45:58.275Z,3.60
2023-08-26T19:48:24.986Z,4.63
2023-08-26T19:50:52.234Z,5.80
2023-08-26T19:53:18.907Z,3.90
2023-08-26T19:55:45.849Z,3.00
2023-08-26T19:58:12.843Z,6.85
2023-08-26T20:00:39.407Z,2.60
2023-08-26T20:03:06.055Z,3.53
2023-08-26T20:05:32.752Z,4.63
2023-08-26T20:08:00.128Z,4.43
2023-08-26T20:10:26.915Z,4.70
2023-08-26T20:12:53.626Z,4.15
2023-08-26T20:15:20.240Z,4.03
2023-08-26T20:17:46.990Z,2.10
2023-08-26T20:20:14.349Z,2.40
2023-08-26T20:22:41.034Z,3.83
2023-08-26T20:25:07.792Z,7.55
2023-08-26T20:27:34.849Z,3.35
2023-08-26T20:30:01.468Z,3.90
2023-08-26T20:32:29.000Z,2.97
2023-08-26T20:34:55.936Z,2.50
2023-08-26T20:37:22.554Z,4.38
2023-08-26T20:39:49.103Z,3.13
2023-08-26T20:42:16.027Z,2.85
2023-08-26T20:44:44.733Z,4.60
2023-08-26T20:47:11.535Z,3.00
2023-08-26T20:49:38.027Z,4.30
2023-08-26T20:52:04.771Z,4.35
2023-08-26T20:54:31.253Z,4.32
2023-08-26T20:56:57.905Z,4.28
2023-08-26T20:59:25.889Z,8.65
2023-08-26T21:01:52.690Z,3.20
2023-08-26T21:04:19.535Z,3.78
2023-08-26T21:06:46.977Z,3.42
2023-08-26T21:09:13.572Z,2.88
2023-08-26T21:11:40.199Z,3.50
2023-08-26T21:14:06.691Z,6.35
2023-08-26T21:16:33.239Z,4.43
2023-08-26T21:19:00.825Z,4.15
2023-08-26T21:21:27.749Z,4.50
2023-08-26T21:23:54.330Z,4.18
2023-08-26T21:26:22.473Z,3.45
2023-08-26T21:28:49.075Z,4.97
2023-08-26T21:31:15.989Z,4.85
2023-08-26T21:33:43.269Z,4.60
2023-08-26T21:36:09.846Z,4.55
2023-08-26T21:38:36.480Z,6.25
2023-08-26T21:41:06.414Z,7.18
2023-08-26T21:43:33.293Z,4.63
2023-08-26T21:45:59.857Z,4.05
2023-08-26T21:48:27.675Z,4.93
2023-08-26T21:50:54.645Z,3.20
2023-08-26T21:53:21.206Z,5.05
2023-08-26T21:55:51.823Z,5.65
2023-08-26T21:58:18.625Z,3.83
2023-08-26T22:00:45.139Z,5.45
2023-08-26T22:03:11.857Z,7.75
2023-08-26T22:05:38.487Z,5.07
2023-08-26T22:08:05.279Z,4.85
2023-08-26T22:10:35.958Z,3.80
2023-08-26T22:13:02.584Z,3.72
2023-08-26T22:15:30.434Z,4.97
2023-08-26T22:17:57.489Z,4.05
2023-08-26T22:20:24.177Z,4.55
2023-08-26T22:22:50.919Z,5.43
2023-08-26T22:25:17.519Z,5.38
2023-08-26T22:27:44.116Z,7.93
2023-08-26T22:30:10.758Z,4.97
2023-08-26T22:32:37.495Z,6.00
2023-08-26T22:35:04.656Z,5.78
2023-08-26T22:37:33.559Z,5.57
2023-08-26T22:40:00.131Z,4.22
2023-08-26T22:42:27.408Z,5.00
2023-08-26T22:44:53.972Z,4.45
2023-08-26T22:47:20.593Z,5.13
2023-08-26T22:49:47.132Z,4.97
2023-08-26T22:52:14.222Z,3.92
2023-08-26T22:54:40.822Z,5.05
2023-08-26T22:57:07.411Z,6.32
2023-08-26T22:59:33.978Z,7.90
2023-08-26T23:02:00.521Z,6.47
2023-08-26T23:04:27.286Z,3.63
2023-08-26T23:06:56.427Z,5.65
2023-08-26T23:09:23.218Z,5.72
2023-08-26T23:11:49.920Z,10.35
2023-08-26T23:14:16.505Z,5.90
2023-08-26T23:16:43.107Z,5.63
2023-08-26T23:19:09.851Z,5.88
2023-08-26T23:21:36.409Z,6.97
2023-08-26T23:24:03.058Z,5.65
2023-08-26T23:26:29.954Z,5.70
2023-08-26T23:28:56.560Z,6.15
2023-08-26T23:31:23.262Z,6.57
2023-08-26T23:33:52.049Z,4.30
2023-08-26T23:36:21.452Z,4.57
2023-08-26T23:38:48.008Z,5.30
2023-08-26T23:41:14.840Z,6.65
2023-08-26T23:43:41.331Z,7.55
2023-08-26T23:46:08.117Z,5.28
2023-08-26T23:48:34.818Z,6.47
2023-08-26T23:51:01.494Z,7.15
2023-08-26T23:53:28.025Z,9.00
2023-08-26T23:55:54.741Z,5.38
2023-08-26T23:58:21.202Z,5.45
